sensor_id;sensor_type;location;lat;lon;timestamp;P1;durP1;ratioP1;P2;durP2;ratioP2
5646;SDS011;2845;48.626;9.362;2023-07-31T00:02:09;1.65;;;0.47;;
5646;SDS011;2845;48.626;9.362;2023-07-31T00:04:44;1.00;;;0.52;;
5646;SDS011;2845;48.626;9.362;2023-07-31T00:07:20;2.03;;;0.70;;
5646;SDS011;2845;48.626;9.362;2023-07-31T00:09:54;1.35;;;0.65;;
5646;SDS011;2845;48.626;9.362;2023-07-31T00:12:29;0.85;;;0.50;;
5646;SDS011;2845;48.626;9.362;2023-07-31T00:15:03;2.70;;;0.55;;
5646;SDS011;2845;48.626;9.362;2023-07-31T00:17:39;2.15;;;0.60;;
5646;SDS011;2845;48.626;9.362;2023-07-31T00:20:13;1.33;;;0.73;;
5646;SDS011;2845;48.626;9.362;2023-07-31T00:22:49;1.35;;;0.50;;
5646;SDS011;2845;48.626;9.362;2023-07-31T00:25:23;1.00;;;0.50;;
5646;SDS011;2845;48.626;9.362;2023-07-31T00:27:57;2.13;;;0.43;;
5646;SDS011;2845;48.626;9.362;2023-07-31T00:30:32;1.08;;;0.40;;
5646;SDS011;2845;48.626;9.362;2023-07-31T00:33:06;1.58;;;0.50;;
5646;SDS011;2845;48.626;9.362;2023-07-31T00:35:40;2.90;;;0.52;;
5646;SDS011;2845;48.626;9.362;2023-07-31T00:38:15;2.42;;;0.45;;
5646;SDS011;2845;48.626;9.362;2023-07-31T00:40:50;2.38;;;0.50;;
5646;SDS011;2845;48.626;9.362;2023-07-31T00:43:25;1.25;;;0.63;;
5646;SDS011;2845;48.626;9.362;2023-07-31T00:46:00;3.63;;;0.77;;
5646;SDS011;2845;48.626;9.362;2023-07-31T00:48:34;1.00;;;0.40;;
5646;SDS011;2845;48.626;9.362;2023-07-31T00:51:09;1.10;;;0.50;;
5646;SDS011;2845;48.626;9.362;2023-07-31T00:53:45;1.45;;;0.60;;
5646;SDS011;2845;48.626;9.362;2023-07-31T00:56:21;3.60;;;0.60;;
5646;SDS011;2845;48.626;9.362;2023-07-31T00:58:55;1.30;;;0.50;;
5646;SDS011;2845;48.626;9.362;2023-07-31T01:01:29;0.93;;;0.50;;
5646;SDS011;2845;48.626;9.362;2023-07-31T01:04:04;1.45;;;0.43;;
5646;SDS011;2845;48.626;9.362;2023-07-31T01:06:40;2.20;;;0.93;;
5646;SDS011;2845;48.626;9.362;2023-07-31T01:09:23;0.80;;;0.50;;
5646;SDS011;2845;48.626;9.362;2023-07-31T01:12:03;1.83;;;0.98;;
5646;SDS011;2845;48.626;9.362;2023-07-31T01:14:40;0.95;;;0.60;;
5646;SDS011;2845;48.626;9.362;2023-07-31T01:17:24;1.05;;;0.57;;
5646;SDS011;2845;48.626;9.362;2023-07-31T01:20:01;1.35;;;0.70;;
5646;SDS011;2845;48.626;9.362;2023-07-31T01:26:03;1.95;;;0.80;;
5646;SDS011;2845;48.626;9.362;2023-07-31T01:28:46;1.15;;;0.57;;
5646;SDS011;2845;48.626;9.362;2023-07-31T01:31:30;1.15;;;0.85;;
5646;SDS011;2845;48.626;9.362;2023-07-31T01:34:05;2.85;;;0.45;;
5646;SDS011;2845;48.626;9.362;2023-07-31T01:36:42;2.70;;;0.50;;
5646;SDS011;2845;48.626;9.362;2023-07-31T01:39:16;1.48;;;0.73;;
5646;SDS011;2845;48.626;9.362;2023-07-31T01:41:54;0.52;;;0.47;;
5646;SDS011;2845;48.626;9.362;2023-07-31T01:44:30;2.20;;;0.60;;
5646;SDS011;2845;48.626;9.362;2023-07-31T01:47:05;1.45;;;0.73;;
5646;SDS011;2845;48.626;9.362;2023-07-31T01:49:39;2.28;;;0.68;;
5646;SDS011;2845;48.626;9.362;2023-07-31T01:52:13;2.67;;;0.82;;
5646;SDS011;2845;48.626;9.362;2023-07-31T01:54:48;1.23;;;0.52;;
5646;SDS011;2845;48.626;9.362;2023-07-31T01:57:23;1.85;;;0.50;;
5646;SDS011;2845;48.626;9.362;2023-07-31T01:59:58;1.92;;;0.88;;
5646;SDS011;2845;48.626;9.362;2023-07-31T02:02:33;0.82;;;0.50;;
5646;SDS011;2845;48.626;9.362;2023-07-31T02:05:07;2.00;;;0.85;;
5646;SDS011;2845;48.626;9.362;2023-07-31T02:07:41;2.35;;;0.50;;
5646;SDS011;2845;48.626;9.362;2023-07-31T02:10:16;0.85;;;0.47;;
5646;SDS011;2845;48.626;9.362;2023-07-31T02:12:51;1.63;;;0.70;;
5646;SDS011;2845;48.626;9.362;2023-07-31T02:15:25;1.77;;;0.75;;
5646;SDS011;2845;48.626;9.362;2023-07-31T02:18:00;2.88;;;0.85;;
5646;SDS011;2845;48.626;9.362;2023-07-31T02:20:34;1.75;;;0.50;;
5646;SDS011;2845;48.626;9.362;2023-07-31T02:23:08;1.63;;;0.70;;
5646;SDS011;2845;48.626;9.362;2023-07-31T02:25:42;1.70;;;0.57;;
5646;SDS011;2845;48.626;9.362;2023-07-31T02:28:18;2.13;;;0.82;;
5646;SDS011;2845;48.626;9.362;2023-07-31T02:30:52;1.58;;;0.40;;
5646;SDS011;2845;48.626;9.362;2023-07-31T02:33:27;1.25;;;0.70;;
5646;SDS011;2845;48.626;9.362;2023-07-31T02:36:01;1.27;;;0.60;;
5646;SDS011;2845;48.626;9.362;2023-07-31T02:38:35;0.93;;;0.40;;
5646;SDS011;2845;48.626;9.362;2023-07-31T02:41:09;1.35;;;0.60;;
5646;SDS011;2845;48.626;9.362;2023-07-31T02:43:45;1.80;;;0.77;;
5646;SDS011;2845;48.626;9.362;2023-07-31T02:46:19;1.85;;;0.73;;
5646;SDS011;2845;48.626;9.362;2023-07-31T02:48:57;2.50;;;0.80;;
5646;SDS011;2845;48.626;9.362;2023-07-31T02:51:32;1.50;;;0.55;;
5646;SDS011;2845;48.626;9.362;2023-07-31T02:54:06;0.82;;;0.52;;
5646;SDS011;2845;48.626;9.362;2023-07-31T02:56:40;2.25;;;0.68;;
5646;SDS011;2845;48.626;9.362;2023-07-31T02:59:16;2.00;;;0.68;;
5646;SDS011;2845;48.626;9.362;2023-07-31T03:01:51;2.50;;;0.63;;
5646;SDS011;2845;48.626;9.362;2023-07-31T03:04:25;1.38;;;0.70;;
5646;SDS011;2845;48.626;9.362;2023-07-31T03:06:59;1.25;;;0.57;;
5646;SDS011;2845;48.626;9.362;2023-07-31T03:09:33;3.33;;;0.77;;
5646;SDS011;2845;48.626;9.362;2023-07-31T03:12:08;1.92;;;0.50;;
5646;SDS011;2845;48.626;9.362;2023-07-31T03:14:44;1.30;;;0.60;;
5646;SDS011;2845;48.626;9.362;2023-07-31T03:17:18;1.38;;;0.50;;
5646;SDS011;2845;48.626;9.362;2023-07-31T03:19:52;1.33;;;0.65;;
5646;SDS011;2845;48.626;9.362;2023-07-31T03:22:26;0.60;;;0.40;;
5646;SDS011;2845;48.626;9.362;2023-07-31T03:25:01;0.88;;;0.40;;
5646;SDS011;2845;48.626;9.362;2023-07-31T03:27:36;2.08;;;0.70;;
5646;SDS011;2845;48.626;9.362;2023-07-31T03:30:11;1.58;;;0.77;;
5646;SDS011;2845;48.626;9.362;2023-07-31T03:32:45;1.67;;;0.50;;
5646;SDS011;2845;48.626;9.362;2023-07-31T03:35:20;1.23;;;0.60;;
5646;SDS011;2845;48.626;9.362;2023-07-31T03:37:54;1.80;;;0.73;;
5646;SDS011;2845;48.626;9.362;2023-07-31T03:40:29;2.28;;;0.75;;
5646;SDS011;2845;48.626;9.362;2023-07-31T03:43:03;1.70;;;0.68;;
5646;SDS011;2845;48.626;9.362;2023-07-31T03:45:39;3.58;;;0.70;;
5646;SDS011;2845;48.626;9.362;2023-07-31T03:48:13;2.88;;;1.17;;
5646;SDS011;2845;48.626;9.362;2023-07-31T03:50:48;1.38;;;0.50;;
5646;SDS011;2845;48.626;9.362;2023-07-31T03:53:23;2.03;;;0.60;;
5646;SDS011;2845;48.626;9.362;2023-07-31T03:55:58;1.75;;;0.80;;
5646;SDS011;2845;48.626;9.362;2023-07-31T03:58:33;1.70;;;0.65;;
5646;SDS011;2845;48.626;9.362;2023-07-31T04:01:10;2.33;;;0.57;;
5646;SDS011;2845;48.626;9.362;2023-07-31T04:03:44;2.97;;;0.80;;
5646;SDS011;2845;48.626;9.362;2023-07-31T04:06:18;1.90;;;0.57;;
5646;SDS011;2845;48.626;9.362;2023-07-31T04:08:53;1.25;;;0.52;;
5646;SDS011;2845;48.626;9.362;2023-07-31T04:11:27;2.33;;;0.57;;
5646;SDS011;2845;48.626;9.362;2023-07-31T04:14:01;1.45;;;0.43;;
5646;SDS011;2845;48.626;9.362;2023-07-31T04:16:36;2.83;;;0.80;;
5646;SDS011;2845;48.626;9.362;2023-07-31T04:19:11;2.75;;;0.68;;
5646;SDS011;2845;48.626;9.362;2023-07-31T04:21:49;1.52;;;0.68;;
5646;SDS011;2845;48.626;9.362;2023-07-31T04:24:23;2.75;;;0.70;;
5646;SDS011;2845;48.626;9.362;2023-07-31T04:26:57;1.45;;;0.70;;
5646;SDS011;2845;48.626;9.362;2023-07-31T04:29:32;1.65;;;0.70;;
5646;SDS011;2845;48.626;9.362;2023-07-31T04:32:08;1.50;;;0.60;;
5646;SDS011;2845;48.626;9.362;2023-07-31T04:34:43;1.35;;;0.70;;
5646;SDS011;2845;48.626;9.362;2023-07-31T04:37:17;1.08;;;0.60;;
5646;SDS011;2845;48.626;9.362;2023-07-31T04:39:51;1.75;;;0.60;;
5646;SDS011;2845;48.626;9.362;2023-07-31T04:42:26;1.35;;;0.77;;
5646;SDS011;2845;48.626;9.362;2023-07-31T04:45:00;3.08;;;1.13;;
5646;SDS011;2845;48.626;9.362;2023-07-31T04:47:36;0.80;;;0.50;;
5646;SDS011;2845;48.626;9.362;2023-07-31T04:50:10;1.67;;;0.63;;
5646;SDS011;2845;48.626;9.362;2023-07-31T04:52:44;0.82;;;0.52;;
5646;SDS011;2845;48.626;9.362;2023-07-31T04:55:19;1.60;;;0.50;;
5646;SDS011;2845;48.626;9.362;2023-07-31T04:57:53;2.83;;;0.75;;
5646;SDS011;2845;48.626;9.362;2023-07-31T05:00:27;1.85;;;0.73;;
5646;SDS011;2845;48.626;9.362;2023-07-31T05:03:02;1.35;;;0.68;;
5646;SDS011;2845;48.626;9.362;2023-07-31T05:05:37;2.03;;;0.90;;
5646;SDS011;2845;48.626;9.362;2023-07-31T05:08:11;2.58;;;0.93;;
5646;SDS011;2845;48.626;9.362;2023-07-31T05:10:46;2.33;;;0.77;;
5646;SDS011;2845;48.626;9.362;2023-07-31T05:13:20;2.67;;;0.85;;
5646;SDS011;2845;48.626;9.362;2023-07-31T05:15:55;1.00;;;0.50;;
5646;SDS011;2845;48.626;9.362;2023-07-31T05:18:34;1.73;;;0.60;;
5646;SDS011;2845;48.626;9.362;2023-07-31T05:21:08;1.75;;;0.80;;
5646;SDS011;2845;48.626;9.362;2023-07-31T05:23:42;1.98;;;0.70;;
5646;SDS011;2845;48.626;9.362;2023-07-31T05:26:16;2.15;;;0.70;;
5646;SDS011;2845;48.626;9.362;2023-07-31T05:28:51;1.13;;;0.50;;
5646;SDS011;2845;48.626;9.362;2023-07-31T05:31:25;1.02;;;0.50;;
5646;SDS011;2845;48.626;9.362;2023-07-31T05:34:01;1.92;;;0.60;;
5646;SDS011;2845;48.626;9.362;2023-07-31T05:36:35;1.25;;;0.60;;
5646;SDS011;2845;48.626;9.362;2023-07-31T05:39:10;1.17;;;0.52;;
5646;SDS011;2845;48.626;9.362;2023-07-31T05:41:44;1.75;;;0.90;;
5646;SDS011;2845;48.626;9.362;2023-07-31T05:44:19;1.02;;;0.55;;
5646;SDS011;2845;48.626;9.362;2023-07-31T05:46:53;2.63;;;0.70;;
5646;SDS011;2845;48.626;9.362;2023-07-31T05:49:29;1.23;;;0.47;;
5646;SDS011;2845;48.626;9.362;2023-07-31T05:52:03;1.77;;;0.82;;
5646;SDS011;2845;48.626;9.362;2023-07-31T05:54:38;1.95;;;0.60;;
5646;SDS011;2845;48.626;9.362;2023-07-31T05:57:12;1.45;;;0.60;;
5646;SDS011;2845;48.626;9.362;2023-07-31T05:59:47;2.00;;;0.77;;
5646;SDS011;2845;48.626;9.362;2023-07-31T06:02:21;2.60;;;0.55;;
5646;SDS011;2845;48.626;9.362;2023-07-31T06:04:56;1.33;;;0.60;;
5646;SDS011;2845;48.626;9.362;2023-07-31T06:07:32;1.90;;;0.73;;
5646;SDS011;2845;48.626;9.362;2023-07-31T06:10:07;3.67;;;0.80;;
5646;SDS011;2845;48.626;9.362;2023-07-31T06:12:42;0.93;;;0.43;;
5646;SDS011;2845;48.626;9.362;2023-07-31T06:15:16;2.05;;;0.60;;
5646;SDS011;2845;48.626;9.362;2023-07-31T06:17:51;1.15;;;0.40;;
5646;SDS011;2845;48.626;9.362;2023-07-31T06:20:28;2.38;;;0.70;;
5646;SDS011;2845;48.626;9.362;2023-07-31T06:23:02;1.05;;;0.47;;
5646;SDS011;2845;48.626;9.362;2023-07-31T06:25:36;1.05;;;0.50;;
5646;SDS011;2845;48.626;9.362;2023-07-31T06:28:10;1.30;;;0.70;;
5646;SDS011;2845;48.626;9.362;2023-07-31T06:30:45;1.40;;;0.50;;
5646;SDS011;2845;48.626;9.362;2023-07-31T06:33:19;1.50;;;0.70;;
5646;SDS011;2845;48.626;9.362;2023-07-31T06:35:55;1.25;;;0.63;;
5646;SDS011;2845;48.626;9.362;2023-07-31T06:38:29;2.83;;;0.50;;
5646;SDS011;2845;48.626;9.362;2023-07-31T06:41:03;1.38;;;0.52;;
5646;SDS011;2845;48.626;9.362;2023-07-31T06:43:37;2.55;;;0.90;;
5646;SDS011;2845;48.626;9.362;2023-07-31T06:46:11;1.50;;;0.57;;
5646;SDS011;2845;48.626;9.362;2023-07-31T06:48:46;2.45;;;0.90;;
5646;SDS011;2845;48.626;9.362;2023-07-31T06:51:21;1.15;;;0.57;;
5646;SDS011;2845;48.626;9.362;2023-07-31T06:53:55;1.80;;;0.77;;
5646;SDS011;2845;48.626;9.362;2023-07-31T06:56:29;1.35;;;0.60;;
5646;SDS011;2845;48.626;9.362;2023-07-31T06:59:04;1.90;;;0.70;;
5646;SDS011;2845;48.626;9.362;2023-07-31T07:01:38;1.30;;;0.60;;
5646;SDS011;2845;48.626;9.362;2023-07-31T07:04:13;1.35;;;1.00;;
5646;SDS011;2845;48.626;9.362;2023-07-31T07:06:49;1.73;;;0.73;;
5646;SDS011;2845;48.626;9.362;2023-07-31T07:09:23;1.30;;;0.60;;
5646;SDS011;2845;48.626;9.362;2023-07-31T07:11:58;2.05;;;0.68;;
5646;SDS011;2845;48.626;9.362;2023-07-31T07:14:33;2.42;;;0.68;;
5646;SDS011;2845;48.626;9.362;2023-07-31T07:17:07;1.75;;;0.60;;
5646;SDS011;2845;48.626;9.362;2023-07-31T07:19:41;1.42;;;0.60;;
5646;SDS011;2845;48.626;9.362;2023-07-31T07:22:17;1.25;;;0.73;;
5646;SDS011;2845;48.626;9.362;2023-07-31T07:24:51;2.90;;;0.93;;
5646;SDS011;2845;48.626;9.362;2023-07-31T07:27:26;1.83;;;0.68;;
5646;SDS011;2845;48.626;9.362;2023-07-31T07:30:01;1.70;;;0.88;;
5646;SDS011;2845;48.626;9.362;2023-07-31T07:32:36;1.23;;;0.63;;
5646;SDS011;2845;48.626;9.362;2023-07-31T07:35:11;1.38;;;0.60;;
5646;SDS011;2845;48.626;9.362;2023-07-31T07:37:49;2.45;;;0.60;;
5646;SDS011;2845;48.626;9.362;2023-07-31T07:40:24;2.33;;;0.70;;
5646;SDS011;2845;48.626;9.362;2023-07-31T07:42:59;1.60;;;0.80;;
5646;SDS011;2845;48.626;9.362;2023-07-31T07:45:34;1.55;;;0.60;;
5646;SDS011;2845;48.626;9.362;2023-07-31T07:48:11;1.77;;;0.90;;
5646;SDS011;2845;48.626;9.362;2023-07-31T07:50:46;1.35;;;0.60;;
5646;SDS011;2845;48.626;9.362;2023-07-31T07:53:21;2.92;;;0.60;;
5646;SDS011;2845;48.626;9.362;2023-07-31T07:55:55;2.30;;;0.82;;
5646;SDS011;2845;48.626;9.362;2023-07-31T07:58:29;3.28;;;0.75;;
5646;SDS011;2845;48.626;9.362;2023-07-31T08:01:04;1.75;;;0.70;;
5646;SDS011;2845;48.626;9.362;2023-07-31T08:03:38;2.28;;;0.70;;
5646;SDS011;2845;48.626;9.362;2023-07-31T08:06:12;1.95;;;0.65;;
5646;SDS011;2845;48.626;9.362;2023-07-31T08:08:49;2.15;;;0.77;;
5646;SDS011;2845;48.626;9.362;2023-07-31T08:11:24;2.47;;;0.70;;
5646;SDS011;2845;48.626;9.362;2023-07-31T08:13:59;2.53;;;0.65;;
5646;SDS011;2845;48.626;9.362;2023-07-31T08:16:34;1.50;;;0.70;;
5646;SDS011;2845;48.626;9.362;2023-07-31T08:19:09;1.60;;;0.77;;
5646;SDS011;2845;48.626;9.362;2023-07-31T08:21:43;3.10;;;0.93;;
5646;SDS011;2845;48.626;9.362;2023-07-31T08:24:19;1.50;;;0.80;;
5646;SDS011;2845;48.626;9.362;2023-07-31T08:26:53;1.35;;;0.77;;
5646;SDS011;2845;48.626;9.362;2023-07-31T08:29:27;3.58;;;0.88;;
5646;SDS011;2845;48.626;9.362;2023-07-31T08:32:03;1.27;;;0.70;;
5646;SDS011;2845;48.626;9.362;2023-07-31T08:34:38;2.45;;;0.80;;
5646;SDS011;2845;48.626;9.362;2023-07-31T08:37:12;2.22;;;0.60;;
5646;SDS011;2845;48.626;9.362;2023-07-31T08:39:47;1.95;;;0.80;;
5646;SDS011;2845;48.626;9.362;2023-07-31T08:42:21;2.35;;;0.75;;
5646;SDS011;2845;48.626;9.362;2023-07-31T08:44:57;1.60;;;0.70;;
5646;SDS011;2845;48.626;9.362;2023-07-31T08:47:35;3.80;;;0.77;;
5646;SDS011;2845;48.626;9.362;2023-07-31T08:50:09;5.40;;;0.85;;
5646;SDS011;2845;48.626;9.362;2023-07-31T08:52:46;2.35;;;0.98;;
5646;SDS011;2845;48.626;9.362;2023-07-31T08:55:22;2.38;;;0.82;;
5646;SDS011;2845;48.626;9.362;2023-07-31T08:57:57;3.85;;;0.90;;
5646;SDS011;2845;48.626;9.362;2023-07-31T09:00:34;1.48;;;0.88;;
5646;SDS011;2845;48.626;9.362;2023-07-31T09:03:11;2.15;;;0.90;;
5646;SDS011;2845;48.626;9.362;2023-07-31T09:05:48;1.63;;;0.55;;
5646;SDS011;2845;48.626;9.362;2023-07-31T09:08:23;1.85;;;1.00;;
5646;SDS011;2845;48.626;9.362;2023-07-31T09:11:02;3.10;;;0.60;;
5646;SDS011;2845;48.626;9.362;2023-07-31T09:13:38;2.75;;;0.90;;
5646;SDS011;2845;48.626;9.362;2023-07-31T09:16:14;2.38;;;0.80;;
5646;SDS011;2845;48.626;9.362;2023-07-31T09:18:52;4.28;;;0.82;;
5646;SDS011;2845;48.626;9.362;2023-07-31T09:21:29;1.83;;;0.95;;
5646;SDS011;2845;48.626;9.362;2023-07-31T09:24:03;1.98;;;0.88;;
5646;SDS011;2845;48.626;9.362;2023-07-31T09:26:41;2.35;;;0.90;;
5646;SDS011;2845;48.626;9.362;2023-07-31T09:29:18;1.85;;;0.88;;
5646;SDS011;2845;48.626;9.362;2023-07-31T09:31:53;3.58;;;1.08;;
5646;SDS011;2845;48.626;9.362;2023-07-31T09:34:30;2.70;;;0.90;;
5646;SDS011;2845;48.626;9.362;2023-07-31T09:37:11;3.60;;;1.05;;
5646;SDS011;2845;48.626;9.362;2023-07-31T09:39:45;2.40;;;0.90;;
5646;SDS011;2845;48.626;9.362;2023-07-31T09:42:25;2.65;;;1.10;;
5646;SDS011;2845;48.626;9.362;2023-07-31T09:45:08;2.60;;;0.90;;
5646;SDS011;2845;48.626;9.362;2023-07-31T09:47:45;2.78;;;1.05;;
5646;SDS011;2845;48.626;9.362;2023-07-31T09:50:21;4.05;;;0.82;;
5646;SDS011;2845;48.626;9.362;2023-07-31T09:52:57;2.65;;;1.08;;
5646;SDS011;2845;48.626;9.362;2023-07-31T09:55:31;3.53;;;1.33;;
5646;SDS011;2845;48.626;9.362;2023-07-31T09:58:08;2.55;;;0.90;;
5646;SDS011;2845;48.626;9.362;2023-07-31T10:00:45;3.63;;;1.10;;
5646;SDS011;2845;48.626;9.362;2023-07-31T10:03:19;2.08;;;1.05;;
5646;SDS011;2845;48.626;9.362;2023-07-31T10:05:54;4.50;;;0.95;;
5646;SDS011;2845;48.626;9.362;2023-07-31T10:08:30;2.55;;;0.85;;
5646;SDS011;2845;48.626;9.362;2023-07-31T10:11:08;1.75;;;0.80;;
5646;SDS011;2845;48.626;9.362;2023-07-31T10:13:45;2.60;;;0.93;;
5646;SDS011;2845;48.626;9.362;2023-07-31T10:16:20;2.70;;;0.88;;
5646;SDS011;2845;48.626;9.362;2023-07-31T10:18:56;3.95;;;0.95;;
5646;SDS011;2845;48.626;9.362;2023-07-31T10:21:31;4.00;;;1.08;;
5646;SDS011;2845;48.626;9.362;2023-07-31T10:24:08;2.33;;;0.93;;
5646;SDS011;2845;48.626;9.362;2023-07-31T10:26:43;2.42;;;1.13;;
5646;SDS011;2845;48.626;9.362;2023-07-31T10:29:20;3.53;;;1.00;;
5646;SDS011;2845;48.626;9.362;2023-07-31T10:31:57;3.05;;;0.80;;
5646;SDS011;2845;48.626;9.362;2023-07-31T10:34:32;1.85;;;0.90;;
5646;SDS011;2845;48.626;9.362;2023-07-31T10:37:23;2.42;;;1.05;;
5646;SDS011;2845;48.626;9.362;2023-07-31T10:40:02;2.30;;;0.85;;
5646;SDS011;2845;48.626;9.362;2023-07-31T10:42:45;2.60;;;0.85;;
5646;SDS011;2845;48.626;9.362;2023-07-31T10:45:27;2.38;;;1.08;;
5646;SDS011;2845;48.626;9.362;2023-07-31T10:48:06;1.60;;;0.80;;
5646;SDS011;2845;48.626;9.362;2023-07-31T10:50:47;1.63;;;0.90;;
5646;SDS011;2845;48.626;9.362;2023-07-31T10:53:24;5.35;;;1.00;;
5646;SDS011;2845;48.626;9.362;2023-07-31T10:56:05;2.40;;;0.93;;
5646;SDS011;2845;48.626;9.362;2023-07-31T10:58:45;2.03;;;1.00;;
5646;SDS011;2845;48.626;9.362;2023-07-31T11:04:29;1.77;;;0.80;;
5646;SDS011;2845;48.626;9.362;2023-07-31T11:07:05;2.50;;;1.20;;
5646;SDS011;2845;48.626;9.362;2023-07-31T11:09:43;2.65;;;1.13;;
5646;SDS011;2845;48.626;9.362;2023-07-31T11:12:17;2.63;;;0.98;;
5646;SDS011;2845;48.626;9.362;2023-07-31T11:14:53;3.50;;;1.20;;
5646;SDS011;2845;48.626;9.362;2023-07-31T11:17:31;3.35;;;1.40;;
5646;SDS011;2845;48.626;9.362;2023-07-31T11:20:06;3.85;;;1.02;;
5646;SDS011;2845;48.626;9.362;2023-07-31T11:22:42;1.75;;;0.90;;
5646;SDS011;2845;48.626;9.362;2023-07-31T11:25:17;3.00;;;1.10;;
5646;SDS011;2845;48.626;9.362;2023-07-31T11:27:52;2.72;;;0.80;;
5646;SDS011;2845;48.626;9.362;2023-07-31T11:30:28;3.40;;;0.95;;
5646;SDS011;2845;48.626;9.362;2023-07-31T11:33:05;1.55;;;0.80;;
5646;SDS011;2845;48.626;9.362;2023-07-31T11:35:43;3.22;;;1.20;;
5646;SDS011;2845;48.626;9.362;2023-07-31T11:38:24;3.15;;;1.42;;
5646;SDS011;2845;48.626;9.362;2023-07-31T11:41:01;2.33;;;1.05;;
5646;SDS011;2845;48.626;9.362;2023-07-31T11:43:37;3.42;;;1.50;;
5646;SDS011;2845;48.626;9.362;2023-07-31T11:46:11;4.20;;;1.40;;
5646;SDS011;2845;48.626;9.362;2023-07-31T11:48:49;1.75;;;1.10;;
5646;SDS011;2845;48.626;9.362;2023-07-31T11:51:24;5.10;;;0.98;;
5646;SDS011;2845;48.626;9.362;2023-07-31T11:53:59;2.70;;;1.00;;
5646;SDS011;2845;48.626;9.362;2023-07-31T11:56:35;2.63;;;0.95;;
5646;SDS011;2845;48.626;9.362;2023-07-31T11:59:10;2.72;;;0.95;;
5646;SDS011;2845;48.626;9.362;2023-07-31T12:01:45;2.45;;;1.00;;
5646;SDS011;2845;48.626;9.362;2023-07-31T12:04:23;3.03;;;1.30;;
5646;SDS011;2845;48.626;9.362;2023-07-31T12:06:59;4.82;;;1.30;;
5646;SDS011;2845;48.626;9.362;2023-07-31T12:09:34;2.08;;;1.02;;
5646;SDS011;2845;48.626;9.362;2023-07-31T12:12:09;2.08;;;0.95;;
5646;SDS011;2845;48.626;9.362;2023-07-31T12:14:43;2.38;;;0.82;;
5646;SDS011;2845;48.626;9.362;2023-07-31T12:17:18;0.98;;;0.65;;
5646;SDS011;2845;48.626;9.362;2023-07-31T12:19:54;3.17;;;1.20;;
5646;SDS011;2845;48.626;9.362;2023-07-31T12:22:32;3.33;;;0.88;;
5646;SDS011;2845;48.626;9.362;2023-07-31T12:25:08;2.75;;;1.17;;
5646;SDS011;2845;48.626;9.362;2023-07-31T12:27:50;4.13;;;1.20;;
5646;SDS011;2845;48.626;9.362;2023-07-31T12:30:28;2.15;;;1.15;;
5646;SDS011;2845;48.626;9.362;2023-07-31T12:33:03;2.75;;;1.30;;
5646;SDS011;2845;48.626;9.362;2023-07-31T12:35:46;2.67;;;1.00;;
5646;SDS011;2845;48.626;9.362;2023-07-31T12:38:21;4.20;;;1.42;;
5646;SDS011;2845;48.626;9.362;2023-07-31T12:40:55;2.30;;;1.05;;
5646;SDS011;2845;48.626;9.362;2023-07-31T12:43:30;3.25;;;1.45;;
5646;SDS011;2845;48.626;9.362;2023-07-31T12:46:05;2.28;;;1.17;;
5646;SDS011;2845;48.626;9.362;2023-07-31T12:48:42;2.63;;;1.13;;
5646;SDS011;2845;48.626;9.362;2023-07-31T12:51:17;2.67;;;0.95;;
5646;SDS011;2845;48.626;9.362;2023-07-31T12:53:53;4.15;;;1.50;;
5646;SDS011;2845;48.626;9.362;2023-07-31T12:56:29;3.90;;;1.30;;
5646;SDS011;2845;48.626;9.362;2023-07-31T12:59:03;2.38;;;1.08;;
5646;SDS011;2845;48.626;9.362;2023-07-31T13:01:38;2.13;;;1.13;;
5646;SDS011;2845;48.626;9.362;2023-07-31T13:04:12;2.72;;;1.17;;
5646;SDS011;2845;48.626;9.362;2023-07-31T13:06:48;3.10;;;1.42;;
5646;SDS011;2845;48.626;9.362;2023-07-31T13:09:24;2.85;;;1.30;;
5646;SDS011;2845;48.626;9.362;2023-07-31T13:11:58;1.95;;;1.02;;
5646;SDS011;2845;48.626;9.362;2023-07-31T13:14:32;3.78;;;1.38;;
5646;SDS011;2845;48.626;9.362;2023-07-31T13:17:06;3.92;;;1.40;;
5646;SDS011;2845;48.626;9.362;2023-07-31T13:19:45;3.60;;;1.33;;
5646;SDS011;2845;48.626;9.362;2023-07-31T13:22:20;2.50;;;1.05;;
5646;SDS011;2845;48.626;9.362;2023-07-31T13:24:56;2.55;;;1.08;;
5646;SDS011;2845;48.626;9.362;2023-07-31T13:27:58;1.90;;;1.10;;
5646;SDS011;2845;48.626;9.362;2023-07-31T13:30:34;3.42;;;1.25;;
5646;SDS011;2845;48.626;9.362;2023-07-31T13:33:09;2.55;;;1.05;;
5646;SDS011;2845;48.626;9.362;2023-07-31T13:36:04;4.50;;;1.58;;
5646;SDS011;2845;48.626;9.362;2023-07-31T13:38:40;4.93;;;1.60;;
5646;SDS011;2845;48.626;9.362;2023-07-31T13:41:14;3.08;;;1.30;;
5646;SDS011;2845;48.626;9.362;2023-07-31T13:43:49;2.70;;;1.15;;
5646;SDS011;2845;48.626;9.362;2023-07-31T13:46:22;4.38;;;1.75;;
5646;SDS011;2845;48.626;9.362;2023-07-31T13:48:57;2.65;;;1.02;;
5646;SDS011;2845;48.626;9.362;2023-07-31T13:51:33;3.20;;;1.38;;
5646;SDS011;2845;48.626;9.362;2023-07-31T13:54:10;4.40;;;1.20;;
5646;SDS011;2845;48.626;9.362;2023-07-31T13:56:45;1.95;;;1.27;;
5646;SDS011;2845;48.626;9.362;2023-07-31T13:59:20;2.35;;;1.10;;
5646;SDS011;2845;48.626;9.362;2023-07-31T14:01:54;1.77;;;1.00;;
5646;SDS011;2845;48.626;9.362;2023-07-31T14:04:29;2.45;;;1.33;;
5646;SDS011;2845;48.626;9.362;2023-07-31T14:07:03;2.55;;;1.15;;
5646;SDS011;2845;48.626;9.362;2023-07-31T14:09:40;3.40;;;1.52;;
5646;SDS011;2845;48.626;9.362;2023-07-31T14:12:14;2.70;;;1.23;;
5646;SDS011;2845;48.626;9.362;2023-07-31T14:15:07;1.80;;;1.00;;
5646;SDS011;2845;48.626;9.362;2023-07-31T14:17:43;3.78;;;1.48;;
5646;SDS011;2845;48.626;9.362;2023-07-31T14:20:18;2.95;;;0.90;;
5646;SDS011;2845;48.626;9.362;2023-07-31T14:22:53;2.05;;;1.05;;
5646;SDS011;2845;48.626;9.362;2023-07-31T14:25:29;2.08;;;1.15;;
5646;SDS011;2845;48.626;9.362;2023-07-31T14:28:04;2.63;;;1.20;;
5646;SDS011;2845;48.626;9.362;2023-07-31T14:30:38;3.67;;;1.45;;
5646;SDS011;2845;48.626;9.362;2023-07-31T14:33:13;2.60;;;1.00;;
5646;SDS011;2845;48.626;9.362;2023-07-31T14:35:47;3.50;;;1.17;;
5646;SDS011;2845;48.626;9.362;2023-07-31T14:38:22;2.65;;;1.08;;
5646;SDS011;2845;48.626;9.362;2023-07-31T14:40:58;2.90;;;1.05;;
5646;SDS011;2845;48.626;9.362;2023-07-31T14:43:33;2.42;;;1.00;;
5646;SDS011;2845;48.626;9.362;2023-07-31T14:46:08;2.45;;;1.10;;
5646;SDS011;2845;48.626;9.362;2023-07-31T14:48:47;5.27;;;1.73;;
5646;SDS011;2845;48.626;9.362;2023-07-31T14:51:22;2.05;;;1.10;;
5646;SDS011;2845;48.626;9.362;2023-07-31T14:53:57;2.67;;;0.98;;
5646;SDS011;2845;48.626;9.362;2023-07-31T14:56:34;2.95;;;1.02;;
5646;SDS011;2845;48.626;9.362;2023-07-31T14:59:08;4.20;;;1.20;;
5646;SDS011;2845;48.626;9.362;2023-07-31T15:01:44;2.33;;;1.30;;
5646;SDS011;2845;48.626;9.362;2023-07-31T15:04:18;2.83;;;0.90;;
5646;SDS011;2845;48.626;9.362;2023-07-31T15:06:54;3.80;;;1.10;;
5646;SDS011;2845;48.626;9.362;2023-07-31T15:09:29;3.78;;;1.30;;
5646;SDS011;2845;48.626;9.362;2023-07-31T15:12:05;5.22;;;1.30;;
5646;SDS011;2845;48.626;9.362;2023-07-31T15:14:41;3.80;;;1.02;;
5646;SDS011;2845;48.626;9.362;2023-07-31T15:17:15;2.55;;;1.45;;
5646;SDS011;2845;48.626;9.362;2023-07-31T15:19:52;2.45;;;1.15;;
5646;SDS011;2845;48.626;9.362;2023-07-31T15:22:26;3.38;;;1.40;;
5646;SDS011;2845;48.626;9.362;2023-07-31T15:25:03;3.83;;;1.20;;
5646;SDS011;2845;48.626;9.362;2023-07-31T15:27:40;3.53;;;1.20;;
5646;SDS011;2845;48.626;9.362;2023-07-31T15:30:14;4.07;;;1.10;;
5646;SDS011;2845;48.626;9.362;2023-07-31T15:32:50;3.45;;;1.00;;
5646;SDS011;2845;48.626;9.362;2023-07-31T15:35:25;3.00;;;0.98;;
5646;SDS011;2845;48.626;9.362;2023-07-31T15:38:00;2.22;;;1.00;;
5646;SDS011;2845;48.626;9.362;2023-07-31T15:40:35;2.10;;;1.20;;
5646;SDS011;2845;48.626;9.362;2023-07-31T15:43:13;2.92;;;1.13;;
5646;SDS011;2845;48.626;9.362;2023-07-31T15:45:51;2.75;;;1.27;;
5646;SDS011;2845;48.626;9.362;2023-07-31T15:48:26;2.03;;;0.88;;
5646;SDS011;2845;48.626;9.362;2023-07-31T15:51:01;2.13;;;1.08;;
5646;SDS011;2845;48.626;9.362;2023-07-31T15:53:36;2.85;;;1.10;;
5646;SDS011;2845;48.626;9.362;2023-07-31T15:56:11;2.28;;;0.95;;
5646;SDS011;2845;48.626;9.362;2023-07-31T15:58:49;2.47;;;0.93;;
5646;SDS011;2845;48.626;9.362;2023-07-31T16:01:24;3.15;;;1.25;;
5646;SDS011;2845;48.626;9.362;2023-07-31T16:03:58;2.33;;;0.88;;
5646;SDS011;2845;48.626;9.362;2023-07-31T16:06:33;3.85;;;1.25;;
5646;SDS011;2845;48.626;9.362;2023-07-31T16:09:09;3.17;;;1.27;;
5646;SDS011;2845;48.626;9.362;2023-07-31T16:11:43;2.63;;;1.20;;
5646;SDS011;2845;48.626;9.362;2023-07-31T16:14:20;3.75;;;1.02;;